createdAt,value
2018-12-30T00:02:41.285Z,96.20
2018-12-30T00:05:29.333Z,96.30
2018-12-30T00:08:17.394Z,96.60
2018-12-30T00:11:05.136Z,96.70
2018-12-30T00:13:52.669Z,97.10
2018-12-30T00:16:40.555Z,97.40
2018-12-30T00:19:28.226Z,97.60
2018-12-30T00:22:16.120Z,97.80
2018-12-30T00:25:04.153Z,98.00
2018-12-30T00:27:52.055Z,98.30
2018-12-30T00:30:40.368Z,98.40
2018-12-30T00:33:28.240Z,98.60
2018-12-30T00:36:16.169Z,98.60
2018-12-30T00:39:05.434Z,98.80
2018-12-30T00:41:52.840Z,98.90
2018-12-30T00:44:40.830Z,99.00
2018-12-30T00:47:28.917Z,99.10
2018-12-30T00:50:16.661Z,99.10
2018-12-30T00:53:04.681Z,99.10
2018-12-30T00:55:52.633Z,99.20
2018-12-30T00:58:40.425Z,99.60
2018-12-30T01:01:28.620Z,99.90
2018-12-30T01:04:16.596Z,99.90
2018-12-30T01:07:04.568Z,99.90
2018-12-30T01:09:52.170Z,99.90
2018-12-30T01:12:40.048Z,99.90
2018-12-30T01:15:27.942Z,99.90
2018-12-30T01:18:15.978Z,99.90
2018-12-30T01:21:03.530Z,99.90
2018-12-30T01:23:51.104Z,99.90
2018-12-30T01:26:38.517Z,99.90
2018-12-30T01:29:26.402Z,99.90
2018-12-30T01:32:14.185Z,99.90
2018-12-30T01:35:02.176Z,99.70
2018-12-30T01:37:50.169Z,99.90
2018-12-30T01:40:37.996Z,99.80
2018-12-30T01:43:25.712Z,99.70
2018-12-30T01:46:13.496Z,99.70
2018-12-30T01:49:01.190Z,99.70
2018-12-30T01:51:49.126Z,99.70
2018-12-30T01:54:36.730Z,99.80
2018-12-30T01:57:24.645Z,99.80
2018-12-30T02:00:13.048Z,99.80
2018-12-30T02:03:01.125Z,99.90
2018-12-30T02:05:48.811Z,99.90
2018-12-30T02:08:36.792Z,99.90
2018-12-30T02:11:24.795Z,99.90
2018-12-30T02:14:12.766Z,99.90
2018-12-30T02:17:00.585Z,99.90
2018-12-30T02:19:48.219Z,99.90
2018-12-30T02:22:36.150Z,99.90
2018-12-30T02:25:23.492Z,99.90
2018-12-30T02:28:11.396Z,99.90
2018-12-30T02:30:59.263Z,99.90
2018-12-30T02:33:46.988Z,99.90
2018-12-30T02:36:34.720Z,99.90
2018-12-30T02:39:22.928Z,99.90
2018-12-30T02:42:10.596Z,99.90
2018-12-30T02:44:58.667Z,99.90
2018-12-30T02:47:46.569Z,99.80
2018-12-30T02:50:34.133Z,99.80
2018-12-30T02:53:21.880Z,99.70
2018-12-30T02:56:09.893Z,99.80
2018-12-30T02:58:57.493Z,99.80
2018-12-30T03:01:45.164Z,99.80
2018-12-30T03:04:33.560Z,99.70
2018-12-30T03:07:21.756Z,99.60
2018-12-30T03:10:09.850Z,99.50
2018-12-30T03:12:57.453Z,99.20
2018-12-30T03:15:45.181Z,99.20
2018-12-30T03:18:33.155Z,99.10
2018-12-30T03:21:20.862Z,99.00
2018-12-30T03:24:08.640Z,98.90
2018-12-30T03:26:56.505Z,98.90
2018-12-30T03:29:44.316Z,98.90
2018-12-30T03:32:31.895Z,98.80
2018-12-30T03:35:19.544Z,98.80
2018-12-30T03:38:07.359Z,98.70
2018-12-30T03:40:55.078Z,98.80
2018-12-30T03:43:43.047Z,98.70
2018-12-30T03:46:30.664Z,98.80
2018-12-30T03:49:18.212Z,98.70
2018-12-30T03:52:08.641Z,98.70
2018-12-30T03:54:55.622Z,98.80
2018-12-30T03:57:43.371Z,98.70
2018-12-30T04:00:31.112Z,98.70
2018-12-30T04:03:18.842Z,98.70
2018-12-30T04:06:06.172Z,98.50
2018-12-30T04:08:53.792Z,98.50
2018-12-30T04:11:41.820Z,98.60
2018-12-30T04:14:29.511Z,98.60
2018-12-30T04:17:17.323Z,98.60
2018-12-30T04:20:05.118Z,98.70
2018-12-30T04:22:52.881Z,98.80
2018-12-30T04:25:40.740Z,98.80
2018-12-30T04:28:28.291Z,99.00
2018-12-30T04:31:16.217Z,99.20
2018-12-30T04:34:04.071Z,99.30
2018-12-30T04:36:51.727Z,99.30
2018-12-30T04:39:39.731Z,99.30
2018-12-30T04:42:27.341Z,99.30
2018-12-30T04:45:15.072Z,99.30
2018-12-30T04:48:02.940Z,99.20
2018-12-30T04:50:50.596Z,99.00
2018-12-30T04:53:37.917Z,99.00
2018-12-30T04:56:25.802Z,99.10
2018-12-30T04:59:13.408Z,98.90
2018-12-30T05:02:01.008Z,99.10
2018-12-30T05:04:48.734Z,99.00
2018-12-30T05:07:36.457Z,99.20
2018-12-30T05:10:24.246Z,99.20
2018-12-30T05:13:12.157Z,99.20
2018-12-30T05:16:00.520Z,99.30
2018-12-30T05:18:48.020Z,99.30
2018-12-30T05:21:35.920Z,99.40
2018-12-30T05:24:24.050Z,99.40
2018-12-30T05:27:11.932Z,99.50
2018-12-30T05:29:59.601Z,99.50
2018-12-30T05:32:47.490Z,99.60
2018-12-30T05:35:34.856Z,99.60
2018-12-30T05:38:22.728Z,99.70
2018-12-30T05:41:10.069Z,99.70
2018-12-30T05:43:57.839Z,99.80
2018-12-30T05:46:45.619Z,99.60
2018-12-30T05:49:33.350Z,99.70
2018-12-30T05:52:20.915Z,99.60
2018-12-30T05:55:08.821Z,99.70
2018-12-30T05:57:56.845Z,99.60
2018-12-30T06:00:44.744Z,99.60
2018-12-30T06:03:32.638Z,99.50
2018-12-30T06:06:20.149Z,99.70
2018-12-30T06:09:07.976Z,99.70
2018-12-30T06:11:55.885Z,99.60
2018-12-30T06:14:43.704Z,99.70
2018-12-30T06:17:31.316Z,99.70
2018-12-30T06:20:19.320Z,99.70
2018-12-30T06:23:07.097Z,99.70
2018-12-30T06:25:55.013Z,99.60
2018-12-30T06:28:42.772Z,99.60
2018-12-30T06:31:30.686Z,99.60
2018-12-30T06:34:18.393Z,99.70
2018-12-30T06:37:06.083Z,99.60
2018-12-30T06:39:53.557Z,99.60
2018-12-30T06:42:41.377Z,99.70
2018-12-30T06:45:29.261Z,99.60
2018-12-30T06:48:17.083Z,99.70
2018-12-30T06:51:04.838Z,99.60
2018-12-30T06:53:52.521Z,99.70
2018-12-30T06:56:39.995Z,99.70
2018-12-30T06:59:27.936Z,99.60
2018-12-30T07:02:15.626Z,99.60
2018-12-30T07:05:02.933Z,99.60
2018-12-30T07:07:50.263Z,99.70
2018-12-30T07:10:38.395Z,99.70
2018-12-30T07:13:25.951Z,99.70
2018-12-30T07:16:13.390Z,99.70
2018-12-30T07:19:00.777Z,99.70
2018-12-30T07:21:48.506Z,99.80
2018-12-30T07:24:36.647Z,99.80
2018-12-30T07:27:24.311Z,99.90
2018-12-30T07:30:12.226Z,99.90
2018-12-30T07:33:00.170Z,99.90
2018-12-30T07:35:47.797Z,99.90
2018-12-30T07:38:35.558Z,99.80
2018-12-30T07:41:23.929Z,99.80
2018-12-30T07:44:11.840Z,99.80
2018-12-30T07:46:59.793Z,99.90
2018-12-30T07:49:47.432Z,99.90
2018-12-30T07:52:35.281Z,99.90
2018-12-30T07:55:22.754Z,99.80
2018-12-30T07:58:10.663Z,99.80
2018-12-30T08:00:58.485Z,99.70
2018-12-30T08:03:46.868Z,99.70
2018-12-30T08:06:34.684Z,99.70
2018-12-30T08:09:22.709Z,99.60
2018-12-30T08:12:10.459Z,99.40
2018-12-30T08:14:58.233Z,99.50
2018-12-30T08:17:46.177Z,99.50
2018-12-30T08:20:33.818Z,99.60
2018-12-30T08:23:23.513Z,99.60
2018-12-30T08:26:10.856Z,99.70
2018-12-30T08:28:58.545Z,99.70
2018-12-30T08:31:46.271Z,99.80
2018-12-30T08:34:33.931Z,99.70
2018-12-30T08:37:21.528Z,99.70
2018-12-30T08:40:09.611Z,99.70
2018-12-30T08:42:57.400Z,99.70
2018-12-30T08:45:45.208Z,99.50
2018-12-30T08:48:33.235Z,99.50
2018-12-30T08:51:20.924Z,99.50
2018-12-30T08:54:08.840Z,99.60
2018-12-30T08:56:56.373Z,99.60
2018-12-30T08:59:43.948Z,99.50
2018-12-30T09:02:31.733Z,99.40
2018-12-30T09:05:19.637Z,99.40
2018-12-30T09:08:07.607Z,99.50
2018-12-30T09:10:55.373Z,99.60
2018-12-30T09:13:43.232Z,99.70
2018-12-30T09:16:30.845Z,99.70
2018-12-30T09:19:18.245Z,99.70
2018-12-30T09:22:06.218Z,99.80
2018-12-30T09:24:53.976Z,99.70
2018-12-30T09:27:41.929Z,99.90
2018-12-30T09:30:30.684Z,99.80
2018-12-30T09:33:18.605Z,99.80
2018-12-30T09:36:06.706Z,99.80
2018-12-30T09:38:54.404Z,99.80
2018-12-30T09:41:42.350Z,99.70
2018-12-30T09:44:30.277Z,99.90
2018-12-30T09:47:17.823Z,99.80
2018-12-30T09:50:06.172Z,99.90
2018-12-30T09:52:53.746Z,99.90
2018-12-30T09:55:41.226Z,99.90
2018-12-30T09:58:28.957Z,99.90
2018-12-30T10:01:16.809Z,99.90
2018-12-30T10:04:04.493Z,99.90
2018-12-30T10:06:52.775Z,99.90
2018-12-30T10:09:40.972Z,99.90
2018-12-30T10:12:28.990Z,99.90
2018-12-30T10:15:16.294Z,99.90
2018-12-30T10:18:04.159Z,99.90
2018-12-30T10:20:52.107Z,99.90
2018-12-30T10:23:39.697Z,99.90
2018-12-30T10:26:27.699Z,99.90
2018-12-30T10:29:15.665Z,99.90
2018-12-30T10:32:03.378Z,99.80
2018-12-30T10:34:50.997Z,99.70
2018-12-30T10:37:38.911Z,99.60
2018-12-30T10:40:27.252Z,99.50
2018-12-30T10:43:15.384Z,99.70
2018-12-30T10:46:04.514Z,99.70
2018-12-30T10:48:52.435Z,99.60
2018-12-30T10:51:40.302Z,99.40
2018-12-30T10:54:28.078Z,99.60
2018-12-30T10:57:16.130Z,99.60
2018-12-30T11:00:03.977Z,99.80
2018-12-30T11:02:51.848Z,99.60
2018-12-30T11:05:39.941Z,99.60
2018-12-30T11:08:28.601Z,99.60
2018-12-30T11:11:16.338Z,99.70
2018-12-30T11:14:04.220Z,99.80
2018-12-30T11:16:52.084Z,99.80
2018-12-30T11:19:39.772Z,99.60
2018-12-30T11:22:27.681Z,99.40
2018-12-30T11:25:15.559Z,99.40
2018-12-30T11:28:03.535Z,99.30
2018-12-30T11:30:50.708Z,99.30
2018-12-30T11:33:38.675Z,99.40
2018-12-30T11:36:26.419Z,99.20
2018-12-30T11:39:13.756Z,99.10
2018-12-30T11:42:01.610Z,99.20
2018-12-30T11:44:49.251Z,99.20
2018-12-30T11:47:37.086Z,99.10
2018-12-30T11:50:24.997Z,99.20
2018-12-30T11:53:13.083Z,99.30
2018-12-30T11:56:01.255Z,99.50
2018-12-30T11:58:48.960Z,99.40
2018-12-30T12:01:36.938Z,99.30
2018-12-30T12:04:24.588Z,99.50
2018-12-30T12:07:12.665Z,99.40
2018-12-30T12:10:00.557Z,99.30
2018-12-30T12:12:49.412Z,99.20
2018-12-30T12:15:39.393Z,99.30
2018-12-30T12:18:27.255Z,99.20
2018-12-30T12:21:14.925Z,99.00
2018-12-30T12:24:02.699Z,98.80
2018-12-30T12:26:51.388Z,98.80
2018-12-30T12:29:39.348Z,98.80
2018-12-30T12:32:27.236Z,98.90
2018-12-30T12:35:15.557Z,98.80
2018-12-30T12:38:03.475Z,98.80
2018-12-30T12:40:50.864Z,98.70
2018-12-30T12:43:38.836Z,98.30
2018-12-30T12:46:26.713Z,98.50
2018-12-30T12:49:14.807Z,98.30
2018-12-30T12:52:02.582Z,98.50
2018-12-30T12:54:50.262Z,98.50
2018-12-30T12:57:38.380Z,98.40
2018-12-30T13:00:26.139Z,98.40
2018-12-30T13:03:14.135Z,98.30
2018-12-30T13:06:02.445Z,98.30
2018-12-30T13:08:50.450Z,98.20
2018-12-30T13:11:38.598Z,98.30
2018-12-30T13:14:26.648Z,97.90
2018-12-30T13:17:14.779Z,97.90
2018-12-30T13:20:02.563Z,98.40
2018-12-30T13:22:50.213Z,97.80
2018-12-30T13:25:37.537Z,97.90
2018-12-30T13:28:25.076Z,98.10
2018-12-30T13:31:12.999Z,97.80
2018-12-30T13:34:01.482Z,97.70
2018-12-30T13:36:49.433Z,97.90
2018-12-30T13:39:37.539Z,97.60
2018-12-30T13:42:28.133Z,97.80
2018-12-30T13:45:17.108Z,97.60
2018-12-30T13:48:05.184Z,97.60
2018-12-30T13:50:52.713Z,97.80
2018-12-30T13:53:40.153Z,97.40
2018-12-30T13:56:28.159Z,97.60
2018-12-30T13:59:16.099Z,97.60
2018-12-30T14:02:03.943Z,97.60
2018-12-30T14:04:52.009Z,97.50
2018-12-30T14:07:39.931Z,97.20
2018-12-30T14:10:27.635Z,97.40
2018-12-30T14:13:15.542Z,97.60
2018-12-30T14:16:04.309Z,97.40
2018-12-30T14:18:52.226Z,97.50
2018-12-30T14:21:39.904Z,97.50
2018-12-30T14:24:29.976Z,97.40
2018-12-30T14:27:18.498Z,97.20
2018-12-30T14:30:08.028Z,97.20
2018-12-30T14:32:56.060Z,97.20
2018-12-30T14:35:43.758Z,97.10
2018-12-30T14:38:31.319Z,97.10
2018-12-30T14:41:18.896Z,97.00
2018-12-30T14:44:06.375Z,97.10
2018-12-30T14:46:54.046Z,97.10
2018-12-30T14:49:41.993Z,97.20
2018-12-30T14:52:30.106Z,97.00
2018-12-30T14:55:18.017Z,97.40
2018-12-30T14:58:05.566Z,97.10
2018-12-30T15:00:53.575Z,97.00
2018-12-30T15:03:41.968Z,97.20
2018-12-30T15:06:29.723Z,97.20
2018-12-30T15:09:17.706Z,97.40
2018-12-30T15:12:05.276Z,97.40
2018-12-30T15:14:52.716Z,97.60
2018-12-30T15:17:40.642Z,97.50
2018-12-30T15:20:27.892Z,97.40
2018-12-30T15:23:15.283Z,97.50
2018-12-30T15:26:03.244Z,97.50
2018-12-30T15:28:50.366Z,97.70
2018-12-30T15:31:38.136Z,97.40
2018-12-30T15:34:26.167Z,97.40
2018-12-30T15:37:13.856Z,97.50
2018-12-30T15:40:01.317Z,97.40
2018-12-30T15:42:49.132Z,97.50
2018-12-30T15:45:36.765Z,97.20
2018-12-30T15:48:24.489Z,97.20
2018-12-30T15:51:12.553Z,97.20
2018-12-30T15:54:00.557Z,97.00
2018-12-30T15:56:48.269Z,96.80
2018-12-30T15:59:36.128Z,97.10
2018-12-30T16:02:24.300Z,97.00
2018-12-30T16:05:11.816Z,96.90
2018-12-30T16:07:59.552Z,96.90
2018-12-30T16:10:47.674Z,96.90
2018-12-30T16:13:35.656Z,96.80
2018-12-30T16:16:23.586Z,96.70
2018-12-30T16:19:11.664Z,96.90
2018-12-30T16:21:59.431Z,97.00
2018-12-30T16:24:46.863Z,96.90
2018-12-30T16:27:34.376Z,96.80
2018-12-30T16:30:22.169Z,96.80
2018-12-30T16:33:09.309Z,97.10
2018-12-30T16:35:57.153Z,96.90
2018-12-30T16:38:44.596Z,96.70
2018-12-30T16:41:32.023Z,96.80
2018-12-30T16:44:19.707Z,96.80
2018-12-30T16:47:07.223Z,96.90
2018-12-30T16:49:56.631Z,96.80
2018-12-30T16:52:44.349Z,96.80
2018-12-30T16:55:35.084Z,97.00
2018-12-30T16:58:22.325Z,96.60
2018-12-30T17:01:09.897Z,96.60
2018-12-30T17:03:57.813Z,96.70
2018-12-30T17:06:45.304Z,96.70
2018-12-30T17:09:33.083Z,96.80
2018-12-30T17:12:20.748Z,96.80
2018-12-30T17:15:08.674Z,96.90
2018-12-30T17:17:55.950Z,96.90
2018-12-30T17:20:43.400Z,96.70
2018-12-30T17:23:30.495Z,96.80
2018-12-30T17:26:17.908Z,96.80
2018-12-30T17:29:05.300Z,96.60
2018-12-30T17:31:52.546Z,96.40
2018-12-30T17:34:39.548Z,96.50
2018-12-30T17:37:26.892Z,96.60
2018-12-30T17:40:14.093Z,96.30
2018-12-30T17:43:01.687Z,96.20
2018-12-30T17:45:49.404Z,96.30
2018-12-30T17:48:36.991Z,96.20
2018-12-30T17:51:25.104Z,96.50
2018-12-30T17:54:15.258Z,96.50
2018-12-30T17:57:01.929Z,96.40
2018-12-30T17:59:49.325Z,96.60
2018-12-30T18:02:36.587Z,96.60
2018-12-30T18:05:23.824Z,96.50
2018-12-30T18:08:11.399Z,96.50
2018-12-30T18:10:59.130Z,96.50
2018-12-30T18:13:46.660Z,96.60
2018-12-30T18:16:34.244Z,96.50
2018-12-30T18:19:21.940Z,96.40
2018-12-30T18:22:09.716Z,96.40
2018-12-30T18:24:57.578Z,96.60
2018-12-30T18:27:44.635Z,96.40
2018-12-30T18:30:31.758Z,96.40
2018-12-30T18:33:19.032Z,96.30
2018-12-30T18:36:06.464Z,96.00
2018-12-30T18:38:54.030Z,96.10
2018-12-30T18:41:41.408Z,96.10
2018-12-30T18:44:28.778Z,96.00
2018-12-30T18:47:16.562Z,96.00
2018-12-30T18:50:04.317Z,96.10
2018-12-30T18:52:51.852Z,96.10
2018-12-30T18:55:39.137Z,96.00
2018-12-30T18:58:26.807Z,96.00
2018-12-30T19:01:14.232Z,95.80
2018-12-30T19:04:02.168Z,95.90
2018-12-30T19:06:49.520Z,96.00
2018-12-30T19:09:37.392Z,96.20
2018-12-30T19:12:24.966Z,96.30
2018-12-30T19:15:12.292Z,96.30
2018-12-30T19:17:59.630Z,96.30
2018-12-30T19:20:46.804Z,96.40
2018-12-30T19:23:34.159Z,96.40
2018-12-30T19:26:21.766Z,96.50
2018-12-30T19:29:09.665Z,96.50
2018-12-30T19:31:57.656Z,96.50
2018-12-30T19:34:45.024Z,96.30
2018-12-30T19:37:32.157Z,96.30
2018-12-30T19:40:19.231Z,96.40
2018-12-30T19:43:06.822Z,96.50
2018-12-30T19:45:54.162Z,96.50
2018-12-30T19:48:41.501Z,96.60
2018-12-30T19:51:28.947Z,96.70
2018-12-30T19:54:16.355Z,96.70
2018-12-30T19:57:04.122Z,96.70
2018-12-30T19:59:51.894Z,96.70
2018-12-30T20:02:39.697Z,96.60
2018-12-30T20:05:27.127Z,96.80
2018-12-30T20:08:14.322Z,96.90
2018-12-30T20:11:01.862Z,96.90
2018-12-30T20:13:49.288Z,96.80
2018-12-30T20:16:36.623Z,96.80
2018-12-30T20:19:23.681Z,96.80
2018-12-30T20:22:11.472Z,96.80
2018-12-30T20:24:58.877Z,96.80
2018-12-30T20:27:46.051Z,96.60
2018-12-30T20:30:33.689Z,96.70
2018-12-30T20:33:21.123Z,97.20
2018-12-30T20:36:08.307Z,97.00
2018-12-30T20:38:55.904Z,96.80
2018-12-30T20:41:43.519Z,96.60
2018-12-30T20:44:30.806Z,96.60
2018-12-30T20:47:18.138Z,96.90
2018-12-30T20:50:05.781Z,97.10
2018-12-30T20:52:53.524Z,97.20
2018-12-30T20:55:40.880Z,97.10
2018-12-30T20:58:28.404Z,97.00
2018-12-30T21:01:15.856Z,97.00
2018-12-30T21:04:03.195Z,97.00
2018-12-30T21:06:50.663Z,97.10
2018-12-30T21:09:38.235Z,97.30
2018-12-30T21:12:25.643Z,97.40
2018-12-30T21:15:13.408Z,97.50
2018-12-30T21:18:00.733Z,97.90
2018-12-30T21:20:48.109Z,98.20
2018-12-30T21:23:35.632Z,98.30
2018-12-30T21:26:23.216Z,98.50
2018-12-30T21:29:11.217Z,98.70
2018-12-30T21:31:59.673Z,98.70
2018-12-30T21:34:47.845Z,98.70
2018-12-30T21:37:35.904Z,98.60
2018-12-30T21:40:25.050Z,98.50
2018-12-30T21:43:13.590Z,98.40
2018-12-30T21:46:01.025Z,98.20
2018-12-30T21:48:48.912Z,98.40
2018-12-30T21:51:36.829Z,98.30
2018-12-30T21:54:24.493Z,98.40
2018-12-30T21:57:11.717Z,98.40
2018-12-30T21:59:59.083Z,98.40
2018-12-30T22:02:46.660Z,98.30
2018-12-30T22:05:34.575Z,98.30
2018-12-30T22:08:22.180Z,98.30
2018-12-30T22:11:10.152Z,98.50
2018-12-30T22:13:57.921Z,98.30
2018-12-30T22:16:45.891Z,98.30
2018-12-30T22:19:33.685Z,98.30
2018-12-30T22:22:21.503Z,98.30
2018-12-30T22:25:09.122Z,98.30
2018-12-30T22:27:56.550Z,98.30
2018-12-30T22:30:43.755Z,98.20
2018-12-30T22:33:31.346Z,98.20
2018-12-30T22:36:19.135Z,98.10
2018-12-30T22:39:07.507Z,98.00
2018-12-30T22:41:54.880Z,98.00
2018-12-30T22:44:42.520Z,98.00
2018-12-30T22:47:30.260Z,97.90
2018-12-30T22:50:18.080Z,97.80
2018-12-30T22:53:05.657Z,97.90
2018-12-30T22:55:53.196Z,98.10
2018-12-30T22:58:40.838Z,98.20
2018-12-30T23:01:32.363Z,98.40
2018-12-30T23:04:20.585Z,98.40
2018-12-30T23:07:08.317Z,98.30
2018-12-30T23:09:55.722Z,98.40
2018-12-30T23:12:43.717Z,98.40
2018-12-30T23:15:31.404Z,98.40
2018-12-30T23:18:19.311Z,98.50
2018-12-30T23:21:06.967Z,98.50
2018-12-30T23:23:54.750Z,98.30
2018-12-30T23:26:41.967Z,98.40
2018-12-30T23:29:29.657Z,98.50
2018-12-30T23:32:17.523Z,98.60
2018-12-30T23:35:04.795Z,98.70
2018-12-30T23:37:52.428Z,98.80
2018-12-30T23:40:40.229Z,98.90
2018-12-30T23:43:27.739Z,99.00
2018-12-30T23:46:15.386Z,99.00
2018-12-30T23:49:02.988Z,98.80
2018-12-30T23:51:51.035Z,99.00
2018-12-30T23:54:38.467Z,99.10
2018-12-30T23:57:25.971Z,99.00
